createdAt,value
2022-08-18T00:03:54.059Z,79.03
2022-08-18T00:08:38.673Z,78.55
2022-08-18T00:13:32.151Z,79.58
2022-08-18T00:18:25.901Z,78.57
2022-08-18T00:23:19.329Z,79.23
2022-08-18T00:28:14.746Z,78.77
2022-08-18T00:33:08.121Z,79.02
2022-08-18T00:38:05.878Z,79.45
2022-08-18T00:43:03.281Z,79.13
2022-08-18T00:47:58.358Z,80.31
2022-08-18T00:53:00.375Z,80.65
2022-08-18T00:58:01.306Z,81.16
2022-08-18T01:03:01.509Z,80.75
2022-08-18T01:07:55.031Z,82.94
2022-08-18T01:12:54.037Z,81.84
2022-08-18T01:18:06.073Z,81.88
2022-08-18T01:23:09.340Z,81.17
2022-08-18T01:28:03.420Z,80.78
2022-08-18T01:32:58.658Z,81.67
2022-08-18T01:37:52.967Z,82.28
2022-08-18T01:42:47.775Z,82.83
2022-08-18T01:47:48.190Z,82.87
2022-08-18T01:52:42.155Z,82.86
2022-08-18T01:57:41.230Z,83.10
2022-08-18T02:02:35.932Z,85.25
2022-08-18T02:07:35.956Z,84.45
2022-08-18T02:12:29.883Z,85.06
2022-08-18T02:17:23.861Z,85.57
2022-08-18T02:22:21.991Z,84.93
2022-08-18T02:27:17.692Z,85.02
2022-08-18T02:32:11.056Z,86.61
2022-08-18T02:37:05.075Z,85.41
2022-08-18T02:41:59.764Z,85.51
2022-08-18T02:46:55.543Z,84.46
2022-08-18T02:51:49.758Z,84.88
2022-08-18T02:56:45.562Z,86.15
2022-08-18T03:01:44.461Z,85.24
2022-08-18T03:06:40.290Z,85.03
2022-08-18T03:11:34.111Z,84.79
2022-08-18T03:16:33.110Z,85.50
2022-08-18T03:21:30.983Z,85.62
2022-08-18T03:26:26.408Z,85.62
2022-08-18T03:31:22.819Z,87.04
2022-08-18T03:36:21.230Z,87.45
2022-08-18T03:41:44.104Z,88.23
2022-08-18T03:46:36.657Z,88.11
2022-08-18T03:51:33.056Z,88.13
2022-08-18T03:56:33.167Z,86.66
2022-08-18T04:01:32.794Z,86.79
2022-08-18T04:06:29.931Z,86.92
2022-08-18T04:11:24.764Z,86.51
2022-08-18T04:16:19.741Z,86.35
2022-08-18T04:21:14.690Z,89.28
2022-08-18T04:26:10.282Z,92.34
2022-08-18T04:31:16.142Z,90.55
2022-08-18T04:36:18.682Z,91.35
2022-08-18T04:41:15.175Z,90.86
2022-08-18T04:46:09.230Z,89.52
2022-08-18T04:51:08.731Z,89.98
2022-08-18T04:56:04.105Z,89.97
2022-08-18T05:01:02.980Z,90.49
2022-08-18T05:05:58.315Z,90.77
2022-08-18T05:10:58.074Z,90.57
2022-08-18T05:16:18.169Z,90.50
2022-08-18T05:21:17.213Z,88.80
2022-08-18T05:26:13.433Z,87.48
2022-08-18T05:31:14.275Z,89.44
2022-08-18T05:36:38.208Z,92.25
2022-08-18T05:41:37.636Z,92.62
2022-08-18T05:46:45.341Z,89.98
2022-08-18T05:51:45.965Z,90.26
2022-08-18T05:56:50.369Z,89.67
2022-08-18T06:01:52.703Z,89.30
2022-08-18T06:06:48.010Z,88.49
2022-08-18T06:11:42.359Z,88.92
2022-08-18T06:17:01.892Z,89.78
2022-08-18T06:22:12.007Z,90.50
2022-08-18T06:27:20.231Z,86.97
2022-08-18T06:32:29.268Z,87.99
2022-08-18T06:37:31.921Z,85.84
2022-08-18T06:42:30.704Z,86.16
2022-08-18T06:47:40.834Z,85.12
2022-08-18T06:52:38.240Z,86.77
2022-08-18T06:57:35.698Z,87.13
2022-08-18T07:02:49.449Z,87.17
2022-08-18T07:07:44.078Z,88.49
2022-08-18T07:12:37.543Z,85.90
2022-08-18T07:17:43.668Z,84.86
2022-08-18T07:22:59.796Z,84.08
2022-08-18T07:27:56.284Z,81.06
2022-08-18T07:33:03.801Z,82.10
2022-08-18T07:38:24.558Z,83.30
2022-08-18T07:43:39.164Z,84.13
2022-08-18T07:48:38.762Z,86.37
2022-08-18T07:53:54.790Z,85.84
2022-08-18T07:59:00.230Z,83.98
2022-08-18T08:04:25.115Z,83.92
2022-08-18T08:09:30.916Z,84.50
2022-08-18T08:14:43.122Z,84.81
2022-08-18T08:20:04.133Z,82.82
2022-08-18T08:25:22.735Z,80.23
2022-08-18T08:30:26.374Z,77.80
2022-08-18T08:35:51.644Z,75.57
2022-08-18T08:40:55.222Z,75.35
2022-08-18T08:46:08.227Z,73.92
2022-08-18T08:51:25.606Z,73.25
2022-08-18T08:56:30.605Z,71.17
2022-08-18T09:01:34.777Z,70.36
2022-08-18T09:06:41.890Z,70.81
2022-08-18T09:12:13.265Z,72.67
2022-08-18T09:17:39.929Z,75.76
2022-08-18T09:22:54.489Z,73.85
2022-08-18T09:28:09.808Z,72.42
2022-08-18T09:33:21.773Z,73.42
2022-08-18T09:38:45.211Z,71.76
2022-08-18T09:43:55.629Z,70.75
2022-08-18T09:48:50.041Z,71.61
2022-08-18T09:59:59.404Z,69.80
2022-08-18T10:05:28.681Z,68.96
2022-08-18T10:10:59.951Z,68.79
2022-08-18T10:16:10.742Z,70.00
2022-08-18T10:21:18.863Z,67.02
2022-08-18T10:27:09.371Z,66.72
2022-08-18T10:32:54.737Z,67.39
2022-08-18T10:37:50.833Z,68.09
2022-08-18T10:42:53.833Z,70.50
2022-08-18T10:48:11.831Z,69.00
2022-08-18T10:53:40.284Z,70.29
2022-08-18T10:59:17.150Z,69.60
2022-08-18T11:04:32.971Z,70.90
2022-08-18T11:09:31.640Z,72.23
2022-08-18T11:15:22.232Z,69.80
2022-08-18T11:20:22.458Z,69.33
2022-08-18T11:25:28.947Z,69.45
2022-08-18T11:30:30.335Z,69.07
2022-08-18T11:35:33.364Z,68.82
2022-08-18T11:45:57.042Z,67.93
2022-08-18T11:51:10.143Z,67.88
2022-08-18T11:56:16.162Z,66.49
2022-08-18T12:01:11.220Z,64.60
2022-08-18T12:06:23.558Z,67.04
2022-08-18T12:11:27.505Z,66.82
2022-08-18T12:16:36.988Z,67.70
2022-08-18T12:21:36.687Z,65.09
2022-08-18T12:26:57.612Z,67.78
2022-08-18T12:32:48.938Z,66.33
2022-08-18T12:38:03.702Z,66.70
2022-08-18T12:43:12.256Z,68.12
2022-08-18T12:48:22.293Z,68.34
2022-08-18T12:53:18.962Z,68.27
2022-08-18T12:58:24.929Z,65.36
2022-08-18T13:03:29.889Z,65.07
2022-08-18T13:08:38.172Z,64.84
2022-08-18T13:14:08.854Z,65.21
2022-08-18T13:19:32.068Z,65.57
2022-08-18T13:24:31.344Z,62.87
2022-08-18T13:29:28.165Z,68.30
2022-08-18T13:34:21.929Z,70.63
2022-08-18T13:39:21.020Z,69.80
2022-08-18T13:44:52.799Z,69.43
2022-08-18T13:50:39.699Z,70.85
2022-08-18T13:56:32.772Z,72.64
2022-08-18T14:02:26.901Z,74.76
2022-08-18T14:14:45.446Z,71.58
2022-08-18T14:20:22.029Z,70.88
2022-08-18T14:32:28.547Z,72.44
2022-08-18T14:37:51.838Z,71.76
2022-08-18T16:39:12.445Z,93.57
2022-08-18T16:44:20.461Z,94.28
2022-08-18T16:49:15.690Z,95.00
2022-08-18T16:54:10.672Z,95.73
2022-08-18T16:59:22.151Z,99.25
2022-08-18T17:04:20.893Z,100.00
2022-08-18T17:09:16.469Z,100.00
2022-08-18T17:14:10.078Z,100.00
2022-08-18T17:19:05.908Z,100.00
2022-08-18T17:24:01.172Z,100.00
2022-08-18T17:29:07.954Z,100.00
2022-08-18T17:34:10.010Z,100.00
2022-08-18T17:39:09.556Z,99.32
2022-08-18T17:44:09.495Z,100.00
2022-08-18T17:49:12.103Z,100.00
2022-08-18T17:54:19.131Z,100.00
2022-08-18T17:59:51.242Z,100.00
2022-08-18T18:04:37.413Z,100.00
2022-08-18T18:09:36.658Z,100.00
2022-08-18T18:14:37.674Z,100.00
2022-08-18T18:19:32.975Z,100.00
2022-08-18T18:24:34.470Z,100.00
2022-08-18T18:29:37.734Z,100.00
2022-08-18T18:34:39.195Z,100.00
2022-08-18T18:39:36.681Z,100.00
2022-08-18T18:44:32.892Z,100.00
2022-08-18T18:49:33.353Z,100.00
2022-08-18T18:54:58.221Z,100.00
2022-08-18T19:00:10.096Z,100.00
2022-08-18T19:05:23.234Z,100.00
2022-08-18T19:10:30.255Z,100.00
2022-08-18T19:15:27.172Z,100.00
2022-08-18T19:20:28.523Z,100.00
2022-08-18T19:25:28.964Z,100.00
2022-08-18T19:30:24.482Z,100.00
2022-08-18T19:35:25.656Z,100.00
2022-08-18T19:40:40.499Z,100.00
2022-08-18T19:45:46.413Z,100.00
2022-08-18T19:50:49.564Z,100.00
2022-08-18T19:56:04.673Z,100.00
2022-08-18T20:01:04.097Z,100.00
2022-08-18T20:06:33.309Z,100.00
2022-08-18T20:11:54.813Z,100.00
2022-08-18T20:17:16.837Z,100.00
2022-08-18T20:22:16.268Z,100.00
2022-08-18T20:27:32.874Z,100.00
2022-08-18T20:32:35.507Z,100.00
2022-08-18T20:37:31.882Z,100.00
2022-08-18T20:43:06.546Z,100.00
2022-08-18T20:48:33.616Z,100.00
2022-08-18T20:54:01.395Z,100.00
2022-08-18T20:59:03.826Z,100.00
2022-08-18T21:04:04.075Z,100.00
2022-08-18T21:08:58.311Z,100.00
2022-08-18T21:13:56.550Z,100.00
2022-08-18T21:18:52.932Z,100.00
2022-08-18T21:23:55.865Z,100.00
2022-08-18T21:28:58.501Z,100.00
2022-08-18T21:33:55.011Z,100.00
2022-08-18T21:38:58.518Z,100.00
2022-08-18T21:44:06.114Z,100.00
2022-08-18T21:49:04.349Z,100.00
2022-08-18T21:54:00.825Z,100.00
2022-08-18T21:59:09.689Z,100.00
2022-08-18T22:04:18.209Z,100.00
2022-08-18T22:09:38.779Z,100.00
2022-08-18T22:14:55.101Z,100.00
2022-08-18T22:19:49.158Z,100.00
2022-08-18T22:24:43.980Z,100.00
2022-08-18T22:29:46.410Z,100.00
2022-08-18T22:34:40.534Z,100.00
2022-08-18T22:39:39.215Z,100.00
2022-08-18T22:44:34.113Z,100.00
2022-08-18T22:49:27.918Z,100.00
2022-08-18T22:54:22.412Z,100.00
2022-08-18T22:59:19.656Z,100.00
2022-08-18T23:04:17.002Z,100.00
2022-08-18T23:09:10.354Z,100.00
2022-08-18T23:14:04.000Z,100.00
2022-08-18T23:19:01.657Z,100.00
2022-08-18T23:23:57.573Z,100.00
2022-08-18T23:28:53.359Z,100.00
2022-08-18T23:33:47.534Z,100.00
2022-08-18T23:38:40.906Z,100.00
2022-08-18T23:43:37.291Z,100.00
2022-08-18T23:48:30.896Z,100.00
2022-08-18T23:53:24.232Z,100.00
2022-08-18T23:58:17.571Z,100.00
